Other Surface Observations
Issued by NWS Great Falls, MT

Home | Current Version | Previous Version | Text Only | Print | Product List | Glossary On
Versions: 1 2 3 4 5 6 7 8 9 10 11 12 13 14 15 16 17 18 19 20 21 22 23 24 25 26 27 28 29 30 31 32 33 34 35 36 37 38 39 40 41 42 43 44 45 46 47 48 49 50
289
SXUS55 KTFX 192112
OSOTFX

AREA AWOS OBSERVATIONS
NATIONAL WEATHER SERVICE GREAT FALLS MT
0211 PM MST Sun Feb 19 2017

METAR K6S8 192055Z AUTO 23007KT 10SM 13/M01 A2950 RMK A01 T01271011
METAR K7S0 192055Z AUTO 09003KT 40SM 04/01 A2961 RMK A01 T00380011
METAR K7S0 191955Z AUTO 05000KT 40SM 04/03 A2961 RMK A01 T00380027
METAR K7S1 192055Z AUTO 13001KT 40SM 06/01 A2960 RMK A01 T00610005
METAR K7S1 191955Z AUTO 18008KT 25SM 04/00 A2960 RMK A01 T00380000
METAR K97M 192055Z AUTO 14006KT 40SM 14/01 A2948 RMK A01 T01440011
METAR K97M 191955Z AUTO 14006KT 40SM 13/00 A2946 RMK A01 T01330000
METAR K9S2 192055Z AUTO 09004KT 7SM 02/M02 A2947 RMK A01 T00161022
METAR K9S2 191955Z AUTO 09008KT 7SM 02/M02 A2948 RMK A01 T00161022
METAR K9S5 192055Z AUTO 08004KT 40SM 05/02 A2959 RMK A01 T00500022
METAR KRPX 191955Z AUTO 22006KT 40SM 12/01 A2942 RMK A01 T01220005
METAR KS01 192055Z AUTO 28004KT 40SM 08/01 A2953 RMK A01 T00770005
METAR KS01 192055Z AUTO 28004KT 40SM 08/01 A2953 RMK A01 T00770005
METAR KS01 191955Z AUTO 27006KT 40SM 08/01 A2952 RMK A01 T00770005
METAR KS34 192055Z AUTO 12000KT 40SM 04/01 A2957 RMK A01 T00440005
METAR KS34 191955Z AUTO 19000KT 40SM 04/01 A2957 RMK A01 T00380011
METAR KTHM 192055Z AUTO 16000KT 40SM 06/05 A2961 RMK A01 T00550050
METAR KTHM 191955Z AUTO 16000KT 40SM 03/02 A2962 RMK A01 T00270022



USA.gov is the U.S. government's official web portal to all federal, state and local government web resources and services.